sensor_id;sensor_type;location;lat;lon;timestamp;P1;durP1;ratioP1;P2;durP2;ratioP2
14611;SDS011;7392;52.078;11.650;2022-09-04T00:01:32;1.67;;;1.57;;
14611;SDS011;7392;52.078;11.650;2022-09-04T00:04:12;1.50;;;1.40;;
14611;SDS011;7392;52.078;11.650;2022-09-04T00:06:49;1.53;;;1.43;;
14611;SDS011;7392;52.078;11.650;2022-09-04T00:09:28;2.50;;;1.70;;
14611;SDS011;7392;52.078;11.650;2022-09-04T00:12:03;1.67;;;1.57;;
14611;SDS011;7392;52.078;11.650;2022-09-04T00:14:36;1.80;;;1.70;;
14611;SDS011;7392;52.078;11.650;2022-09-04T00:17:09;1.63;;;1.27;;
14611;SDS011;7392;52.078;11.650;2022-09-04T00:19:41;1.60;;;1.43;;
14611;SDS011;7392;52.078;11.650;2022-09-04T00:22:17;1.37;;;1.27;;
14611;SDS011;7392;52.078;11.650;2022-09-04T00:24:57;1.50;;;1.37;;
14611;SDS011;7392;52.078;11.650;2022-09-04T00:27:35;1.47;;;1.30;;
14611;SDS011;7392;52.078;11.650;2022-09-04T00:30:11;1.63;;;1.40;;
14611;SDS011;7392;52.078;11.650;2022-09-04T00:32:42;1.23;;;1.13;;
14611;SDS011;7392;52.078;11.650;2022-09-04T00:35:16;1.10;;;1.00;;
14611;SDS011;7392;52.078;11.650;2022-09-04T00:37:48;1.30;;;1.10;;
14611;SDS011;7392;52.078;11.650;2022-09-04T00:40:26;1.40;;;1.23;;
14611;SDS011;7392;52.078;11.650;2022-09-04T00:43:09;1.10;;;1.00;;
14611;SDS011;7392;52.078;11.650;2022-09-04T00:49:14;1.30;;;1.13;;
14611;SDS011;7392;52.078;11.650;2022-09-04T00:51:52;1.17;;;1.00;;
14611;SDS011;7392;52.078;11.650;2022-09-04T00:54:36;1.30;;;1.20;;
14611;SDS011;7392;52.078;11.650;2022-09-04T00:57:18;1.10;;;1.00;;
14611;SDS011;7392;52.078;11.650;2022-09-04T01:00:07;1.33;;;1.10;;
14611;SDS011;7392;52.078;11.650;2022-09-04T01:02:41;1.37;;;1.20;;
14611;SDS011;7392;52.078;11.650;2022-09-04T01:05:27;1.07;;;0.97;;
14611;SDS011;7392;52.078;11.650;2022-09-04T01:08:08;1.07;;;0.93;;
14611;SDS011;7392;52.078;11.650;2022-09-04T01:10:44;1.00;;;0.83;;
14611;SDS011;7392;52.078;11.650;2022-09-04T01:13:25;1.00;;;0.90;;
14611;SDS011;7392;52.078;11.650;2022-09-04T01:16:03;1.30;;;0.90;;
14611;SDS011;7392;52.078;11.650;2022-09-04T01:18:36;1.40;;;1.10;;
14611;SDS011;7392;52.078;11.650;2022-09-04T01:21:17;1.40;;;1.17;;
14611;SDS011;7392;52.078;11.650;2022-09-04T01:24:17;1.33;;;1.03;;
14611;SDS011;7392;52.078;11.650;2022-09-04T01:26:59;0.70;;;0.70;;
14611;SDS011;7392;52.078;11.650;2022-09-04T01:32:23;1.30;;;1.10;;
14611;SDS011;7392;52.078;11.650;2022-09-04T01:35:00;1.07;;;0.90;;
14611;SDS011;7392;52.078;11.650;2022-09-04T01:37:39;0.90;;;0.90;;
14611;SDS011;7392;52.078;11.650;2022-09-04T01:40:22;1.57;;;1.00;;
14611;SDS011;7392;52.078;11.650;2022-09-04T01:43:03;2.30;;;1.00;;
14611;SDS011;7392;52.078;11.650;2022-09-04T01:45:38;1.10;;;0.83;;
14611;SDS011;7392;52.078;11.650;2022-09-04T01:48:19;1.37;;;1.10;;
14611;SDS011;7392;52.078;11.650;2022-09-04T01:50:53;1.27;;;0.97;;
14611;SDS011;7392;52.078;11.650;2022-09-04T01:53:24;1.10;;;1.00;;
14611;SDS011;7392;52.078;11.650;2022-09-04T01:55:59;1.00;;;0.90;;
14611;SDS011;7392;52.078;11.650;2022-09-04T01:58:37;1.00;;;0.90;;
14611;SDS011;7392;52.078;11.650;2022-09-04T02:01:12;1.10;;;0.90;;
14611;SDS011;7392;52.078;11.650;2022-09-04T02:03:47;0.80;;;0.80;;
14611;SDS011;7392;52.078;11.650;2022-09-04T02:06:25;1.03;;;0.83;;
14611;SDS011;7392;52.078;11.650;2022-09-04T02:09:04;1.10;;;1.00;;
14611;SDS011;7392;52.078;11.650;2022-09-04T02:11:38;1.07;;;0.97;;
14611;SDS011;7392;52.078;11.650;2022-09-04T02:14:18;0.83;;;0.80;;
14611;SDS011;7392;52.078;11.650;2022-09-04T02:17:00;1.07;;;0.97;;
14611;SDS011;7392;52.078;11.650;2022-09-04T02:19:36;1.27;;;0.70;;
14611;SDS011;7392;52.078;11.650;2022-09-04T02:22:20;1.10;;;1.00;;
14611;SDS011;7392;52.078;11.650;2022-09-04T02:24:56;1.33;;;0.90;;
14611;SDS011;7392;52.078;11.650;2022-09-04T02:27:34;1.37;;;1.00;;
14611;SDS011;7392;52.078;11.650;2022-09-04T02:30:14;1.10;;;1.00;;
14611;SDS011;7392;52.078;11.650;2022-09-04T02:32:45;1.13;;;0.93;;
14611;SDS011;7392;52.078;11.650;2022-09-04T02:35:22;1.10;;;0.90;;
14611;SDS011;7392;52.078;11.650;2022-09-04T02:38:03;1.33;;;1.10;;
14611;SDS011;7392;52.078;11.650;2022-09-04T02:40:43;0.90;;;0.90;;
14611;SDS011;7392;52.078;11.650;2022-09-04T02:43:19;1.10;;;1.00;;
14611;SDS011;7392;52.078;11.650;2022-09-04T02:45:58;1.17;;;1.00;;
14611;SDS011;7392;52.078;11.650;2022-09-04T02:48:32;1.60;;;1.40;;
14611;SDS011;7392;52.078;11.650;2022-09-04T02:51:12;1.33;;;1.10;;
14611;SDS011;7392;52.078;11.650;2022-09-04T02:53:51;1.20;;;1.10;;
14611;SDS011;7392;52.078;11.650;2022-09-04T02:56:28;1.73;;;1.23;;
14611;SDS011;7392;52.078;11.650;2022-09-04T03:01:58;1.13;;;1.00;;
14611;SDS011;7392;52.078;11.650;2022-09-04T03:04:29;1.10;;;1.00;;
14611;SDS011;7392;52.078;11.650;2022-09-04T03:07:07;1.57;;;1.40;;
14611;SDS011;7392;52.078;11.650;2022-09-04T03:09:41;1.27;;;1.10;;
14611;SDS011;7392;52.078;11.650;2022-09-04T03:12:20;1.30;;;1.00;;
14611;SDS011;7392;52.078;11.650;2022-09-04T03:14:58;1.17;;;1.00;;
14611;SDS011;7392;52.078;11.650;2022-09-04T03:17:33;1.70;;;1.20;;
14611;SDS011;7392;52.078;11.650;2022-09-04T03:20:13;1.47;;;1.20;;
14611;SDS011;7392;52.078;11.650;2022-09-04T03:22:47;1.37;;;1.13;;
14611;SDS011;7392;52.078;11.650;2022-09-04T03:25:24;1.60;;;1.10;;
14611;SDS011;7392;52.078;11.650;2022-09-04T03:28:07;1.40;;;1.00;;
14611;SDS011;7392;52.078;11.650;2022-09-04T03:30:38;1.40;;;1.20;;
14611;SDS011;7392;52.078;11.650;2022-09-04T03:33:10;1.10;;;1.00;;
14611;SDS011;7392;52.078;11.650;2022-09-04T03:35:46;1.20;;;1.10;;
14611;SDS011;7392;52.078;11.650;2022-09-04T03:38:22;1.30;;;1.20;;
14611;SDS011;7392;52.078;11.650;2022-09-04T03:41:04;1.53;;;1.30;;
14611;SDS011;7392;52.078;11.650;2022-09-04T03:43:48;1.33;;;1.10;;
14611;SDS011;7392;52.078;11.650;2022-09-04T03:46:29;1.40;;;1.30;;
14611;SDS011;7392;52.078;11.650;2022-09-04T03:49:11;1.90;;;1.10;;
14611;SDS011;7392;52.078;11.650;2022-09-04T03:51:51;1.60;;;1.30;;
14611;SDS011;7392;52.078;11.650;2022-09-04T03:54:30;1.73;;;1.20;;
14611;SDS011;7392;52.078;11.650;2022-09-04T04:00:01;1.67;;;1.30;;
14611;SDS011;7392;52.078;11.650;2022-09-04T04:05:36;1.03;;;0.90;;
14611;SDS011;7392;52.078;11.650;2022-09-04T04:08:16;1.00;;;0.90;;
14611;SDS011;7392;52.078;11.650;2022-09-04T04:10:57;1.67;;;1.23;;
14611;SDS011;7392;52.078;11.650;2022-09-04T04:13:35;1.17;;;1.07;;
14611;SDS011;7392;52.078;11.650;2022-09-04T04:16:23;1.40;;;1.30;;
14611;SDS011;7392;52.078;11.650;2022-09-04T04:19:03;1.50;;;1.30;;
14611;SDS011;7392;52.078;11.650;2022-09-04T04:21:55;1.40;;;1.30;;
14611;SDS011;7392;52.078;11.650;2022-09-04T04:24:41;2.20;;;1.57;;
14611;SDS011;7392;52.078;11.650;2022-09-04T04:27:26;2.73;;;1.80;;
14611;SDS011;7392;52.078;11.650;2022-09-04T04:30:06;1.83;;;1.40;;
14611;SDS011;7392;52.078;11.650;2022-09-04T04:32:38;2.20;;;1.63;;
14611;SDS011;7392;52.078;11.650;2022-09-04T04:35:18;1.60;;;1.50;;
14611;SDS011;7392;52.078;11.650;2022-09-04T04:38:01;1.70;;;1.60;;
14611;SDS011;7392;52.078;11.650;2022-09-04T04:40:47;2.47;;;1.90;;
14611;SDS011;7392;52.078;11.650;2022-09-04T04:43:36;2.37;;;1.90;;
14611;SDS011;7392;52.078;11.650;2022-09-04T04:46:15;1.90;;;1.60;;
14611;SDS011;7392;52.078;11.650;2022-09-04T04:49:00;2.30;;;1.60;;
14611;SDS011;7392;52.078;11.650;2022-09-04T04:54:42;2.87;;;1.87;;
14611;SDS011;7392;52.078;11.650;2022-09-04T04:57:21;1.70;;;1.43;;
14611;SDS011;7392;52.078;11.650;2022-09-04T05:00:03;1.93;;;1.70;;
14611;SDS011;7392;52.078;11.650;2022-09-04T05:02:38;1.80;;;1.57;;
14611;SDS011;7392;52.078;11.650;2022-09-04T05:05:16;1.57;;;1.33;;
14611;SDS011;7392;52.078;11.650;2022-09-04T05:07:49;1.77;;;1.60;;
14611;SDS011;7392;52.078;11.650;2022-09-04T05:10:35;1.57;;;1.20;;
14611;SDS011;7392;52.078;11.650;2022-09-04T05:13:10;1.37;;;1.27;;
14611;SDS011;7392;52.078;11.650;2022-09-04T05:15:44;1.63;;;1.50;;
14611;SDS011;7392;52.078;11.650;2022-09-04T05:18:35;1.30;;;1.10;;
14611;SDS011;7392;52.078;11.650;2022-09-04T05:21:12;1.43;;;1.23;;
14611;SDS011;7392;52.078;11.650;2022-09-04T05:23:47;3.03;;;1.47;;
14611;SDS011;7392;52.078;11.650;2022-09-04T05:26:23;1.27;;;1.17;;
14611;SDS011;7392;52.078;11.650;2022-09-04T05:28:59;1.10;;;1.00;;
14611;SDS011;7392;52.078;11.650;2022-09-04T05:31:38;2.20;;;1.47;;
14611;SDS011;7392;52.078;11.650;2022-09-04T05:34:16;0.80;;;0.73;;
14611;SDS011;7392;52.078;11.650;2022-09-04T05:36:56;1.17;;;0.90;;
14611;SDS011;7392;52.078;11.650;2022-09-04T05:39:34;1.50;;;1.00;;
14611;SDS011;7392;52.078;11.650;2022-09-04T05:42:17;1.20;;;1.10;;
14611;SDS011;7392;52.078;11.650;2022-09-04T05:45:06;1.23;;;1.07;;
14611;SDS011;7392;52.078;11.650;2022-09-04T05:47:46;1.43;;;1.20;;
14611;SDS011;7392;52.078;11.650;2022-09-04T05:50:30;1.37;;;1.00;;
14611;SDS011;7392;52.078;11.650;2022-09-04T05:53:10;1.00;;;0.90;;
14611;SDS011;7392;52.078;11.650;2022-09-04T05:59:00;1.10;;;1.00;;
14611;SDS011;7392;52.078;11.650;2022-09-04T06:01:48;1.10;;;1.00;;
14611;SDS011;7392;52.078;11.650;2022-09-04T06:04:43;1.50;;;1.00;;
14611;SDS011;7392;52.078;11.650;2022-09-04T06:07:25;1.20;;;1.10;;
14611;SDS011;7392;52.078;11.650;2022-09-04T06:10:01;1.80;;;1.20;;
14611;SDS011;7392;52.078;11.650;2022-09-04T06:15:40;1.10;;;1.00;;
14611;SDS011;7392;52.078;11.650;2022-09-04T06:18:31;0.63;;;0.60;;
14611;SDS011;7392;52.078;11.650;2022-09-04T06:21:25;1.67;;;0.93;;
14611;SDS011;7392;52.078;11.650;2022-09-04T06:24:13;1.00;;;0.83;;
14611;SDS011;7392;52.078;11.650;2022-09-04T06:30:03;0.87;;;0.80;;
14611;SDS011;7392;52.078;11.650;2022-09-04T06:32:48;1.10;;;1.00;;
14611;SDS011;7392;52.078;11.650;2022-09-04T06:35:43;1.53;;;1.00;;
14611;SDS011;7392;52.078;11.650;2022-09-04T06:38:25;1.00;;;0.90;;
14611;SDS011;7392;52.078;11.650;2022-09-04T06:41:19;1.30;;;1.10;;
14611;SDS011;7392;52.078;11.650;2022-09-04T06:44:04;0.97;;;0.87;;
14611;SDS011;7392;52.078;11.650;2022-09-04T06:46:41;1.20;;;1.10;;
14611;SDS011;7392;52.078;11.650;2022-09-04T06:49:19;1.40;;;1.30;;
14611;SDS011;7392;52.078;11.650;2022-09-04T06:51:52;2.93;;;1.30;;
14611;SDS011;7392;52.078;11.650;2022-09-04T06:54:36;1.63;;;1.30;;
14611;SDS011;7392;52.078;11.650;2022-09-04T06:57:24;1.63;;;1.30;;
14611;SDS011;7392;52.078;11.650;2022-09-04T07:00:05;1.20;;;0.90;;
14611;SDS011;7392;52.078;11.650;2022-09-04T07:02:39;1.60;;;1.10;;
14611;SDS011;7392;52.078;11.650;2022-09-04T07:05:33;1.63;;;1.10;;
14611;SDS011;7392;52.078;11.650;2022-09-04T07:08:10;1.50;;;1.10;;
14611;SDS011;7392;52.078;11.650;2022-09-04T07:10:45;1.17;;;1.07;;
14611;SDS011;7392;52.078;11.650;2022-09-04T07:16:31;1.40;;;0.93;;
14611;SDS011;7392;52.078;11.650;2022-09-04T07:19:09;1.30;;;1.20;;
14611;SDS011;7392;52.078;11.650;2022-09-04T07:21:53;1.97;;;1.33;;
14611;SDS011;7392;52.078;11.650;2022-09-04T07:24:46;1.60;;;1.50;;
14611;SDS011;7392;52.078;11.650;2022-09-04T07:27:26;1.80;;;1.57;;
14611;SDS011;7392;52.078;11.650;2022-09-04T07:30:06;1.73;;;1.63;;
14611;SDS011;7392;52.078;11.650;2022-09-04T07:32:39;2.63;;;1.67;;
14611;SDS011;7392;52.078;11.650;2022-09-04T07:35:12;3.03;;;2.10;;
14611;SDS011;7392;52.078;11.650;2022-09-04T07:37:49;4.63;;;2.33;;
14611;SDS011;7392;52.078;11.650;2022-09-04T07:40:24;3.47;;;2.43;;
14611;SDS011;7392;52.078;11.650;2022-09-04T07:43:02;2.87;;;2.37;;
14611;SDS011;7392;52.078;11.650;2022-09-04T07:45:37;3.57;;;2.33;;
14611;SDS011;7392;52.078;11.650;2022-09-04T07:48:17;3.10;;;2.53;;
14611;SDS011;7392;52.078;11.650;2022-09-04T07:50:57;2.83;;;2.30;;
14611;SDS011;7392;52.078;11.650;2022-09-04T07:53:43;2.50;;;2.30;;
14611;SDS011;7392;52.078;11.650;2022-09-04T07:56:24;2.87;;;2.43;;
14611;SDS011;7392;52.078;11.650;2022-09-04T08:02:22;4.50;;;3.00;;
14611;SDS011;7392;52.078;11.650;2022-09-04T08:05:11;3.20;;;2.87;;
14611;SDS011;7392;52.078;11.650;2022-09-04T08:07:51;2.60;;;2.40;;
14611;SDS011;7392;52.078;11.650;2022-09-04T08:10:34;2.57;;;2.37;;
14611;SDS011;7392;52.078;11.650;2022-09-04T08:13:12;2.63;;;2.43;;
14611;SDS011;7392;52.078;11.650;2022-09-04T08:15:51;2.37;;;2.00;;
14611;SDS011;7392;52.078;11.650;2022-09-04T08:18:34;4.30;;;3.60;;
14611;SDS011;7392;52.078;11.650;2022-09-04T08:21:20;4.87;;;2.87;;
14611;SDS011;7392;52.078;11.650;2022-09-04T08:23:57;3.30;;;3.00;;
14611;SDS011;7392;52.078;11.650;2022-09-04T08:26:57;3.47;;;2.60;;
14611;SDS011;7392;52.078;11.650;2022-09-04T08:29:39;5.53;;;3.20;;
14611;SDS011;7392;52.078;11.650;2022-09-04T08:32:24;3.90;;;3.07;;
14611;SDS011;7392;52.078;11.650;2022-09-04T08:35:09;3.50;;;2.53;;
14611;SDS011;7392;52.078;11.650;2022-09-04T08:37:47;4.00;;;2.67;;
14611;SDS011;7392;52.078;11.650;2022-09-04T08:40:37;3.43;;;2.77;;
14611;SDS011;7392;52.078;11.650;2022-09-04T08:43:32;4.10;;;2.73;;
14611;SDS011;7392;52.078;11.650;2022-09-04T08:46:18;2.67;;;2.27;;
14611;SDS011;7392;52.078;11.650;2022-09-04T08:49:10;4.13;;;2.43;;
14611;SDS011;7392;52.078;11.650;2022-09-04T08:55:16;2.83;;;2.50;;
14611;SDS011;7392;52.078;11.650;2022-09-04T08:58:15;2.73;;;2.47;;
14611;SDS011;7392;52.078;11.650;2022-09-04T09:01:04;2.57;;;2.10;;
14611;SDS011;7392;52.078;11.650;2022-09-04T09:04:03;2.67;;;1.97;;
14611;SDS011;7392;52.078;11.650;2022-09-04T09:06:57;2.60;;;1.90;;
14611;SDS011;7392;52.078;11.650;2022-09-04T09:10:03;2.07;;;1.83;;
14611;SDS011;7392;52.078;11.650;2022-09-04T09:13:26;3.57;;;2.70;;
14611;SDS011;7392;52.078;11.650;2022-09-04T09:16:24;4.90;;;3.13;;
14611;SDS011;7392;52.078;11.650;2022-09-04T09:19:09;4.37;;;3.20;;
14611;SDS011;7392;52.078;11.650;2022-09-04T09:22:03;3.00;;;2.60;;
14611;SDS011;7392;52.078;11.650;2022-09-04T09:27:49;3.03;;;2.63;;
14611;SDS011;7392;52.078;11.650;2022-09-04T09:30:46;2.83;;;2.53;;
14611;SDS011;7392;52.078;11.650;2022-09-04T09:33:51;4.43;;;2.63;;
14611;SDS011;7392;52.078;11.650;2022-09-04T09:36:56;3.67;;;2.50;;
14611;SDS011;7392;52.078;11.650;2022-09-04T09:39:52;3.33;;;2.50;;
14611;SDS011;7392;52.078;11.650;2022-09-04T09:46:17;2.57;;;2.20;;
14611;SDS011;7392;52.078;11.650;2022-09-04T09:49:09;2.20;;;1.90;;
14611;SDS011;7392;52.078;11.650;2022-09-04T09:52:07;2.20;;;2.00;;
14611;SDS011;7392;52.078;11.650;2022-09-04T09:58:14;2.70;;;2.20;;
14611;SDS011;7392;52.078;11.650;2022-09-04T10:01:03;5.07;;;2.37;;
14611;SDS011;7392;52.078;11.650;2022-09-04T10:03:44;2.77;;;2.30;;
14611;SDS011;7392;52.078;11.650;2022-09-04T10:06:37;3.00;;;2.50;;
14611;SDS011;7392;52.078;11.650;2022-09-04T10:15:33;3.57;;;2.93;;
14611;SDS011;7392;52.078;11.650;2022-09-04T10:21:30;3.63;;;2.93;;
14611;SDS011;7392;52.078;11.650;2022-09-04T10:24:30;3.67;;;3.03;;
14611;SDS011;7392;52.078;11.650;2022-09-04T10:27:14;4.57;;;3.17;;
14611;SDS011;7392;52.078;11.650;2022-09-04T10:29:59;3.40;;;2.90;;
14611;SDS011;7392;52.078;11.650;2022-09-04T10:32:37;3.67;;;2.97;;
14611;SDS011;7392;52.078;11.650;2022-09-04T10:35:19;3.27;;;2.90;;
14611;SDS011;7392;52.078;11.650;2022-09-04T10:47:06;4.37;;;3.40;;
14611;SDS011;7392;52.078;11.650;2022-09-04T10:50:06;4.22;;;3.15;;
14611;SDS011;7392;52.078;11.650;2022-09-04T10:52:57;4.97;;;2.67;;
14611;SDS011;7392;52.078;11.650;2022-09-04T10:58:34;3.90;;;3.13;;
14611;SDS011;7392;52.078;11.650;2022-09-04T11:01:24;2.97;;;2.60;;
14611;SDS011;7392;52.078;11.650;2022-09-04T11:04:17;4.00;;;2.85;;
14611;SDS011;7392;52.078;11.650;2022-09-04T11:10:03;4.05;;;2.75;;
14611;SDS011;7392;52.078;11.650;2022-09-04T11:13:03;3.47;;;3.03;;
14611;SDS011;7392;52.078;11.650;2022-09-04T11:16:00;3.63;;;3.03;;
14611;SDS011;7392;52.078;11.650;2022-09-04T11:18:52;4.25;;;2.83;;
14611;SDS011;7392;52.078;11.650;2022-09-04T11:21:41;3.65;;;2.90;;
14611;SDS011;7392;52.078;11.650;2022-09-04T11:27:47;2.95;;;2.65;;
14611;SDS011;7392;52.078;11.650;2022-09-04T11:30:32;2.80;;;2.47;;
14611;SDS011;7392;52.078;11.650;2022-09-04T11:33:32;2.90;;;2.47;;
14611;SDS011;7392;52.078;11.650;2022-09-04T11:36:18;2.70;;;2.28;;
14611;SDS011;7392;52.078;11.650;2022-09-04T11:39:16;3.10;;;2.15;;
14611;SDS011;7392;52.078;11.650;2022-09-04T11:42:17;3.67;;;2.80;;
14611;SDS011;7392;52.078;11.650;2022-09-04T11:45:05;3.10;;;2.80;;
14611;SDS011;7392;52.078;11.650;2022-09-04T11:48:02;3.28;;;2.72;;
14611;SDS011;7392;52.078;11.650;2022-09-04T11:51:12;3.15;;;2.85;;
14611;SDS011;7392;52.078;11.650;2022-09-04T11:54:14;3.20;;;2.70;;
14611;SDS011;7392;52.078;11.650;2022-09-04T11:57:04;3.35;;;2.88;;
14611;SDS011;7392;52.078;11.650;2022-09-04T11:59:44;3.00;;;2.70;;
14611;SDS011;7392;52.078;11.650;2022-09-04T12:02:37;2.53;;;2.28;;
14611;SDS011;7392;52.078;11.650;2022-09-04T12:05:42;2.50;;;2.28;;
14611;SDS011;7392;52.078;11.650;2022-09-04T12:15:01;2.38;;;2.17;;
14611;SDS011;7392;52.078;11.650;2022-09-04T12:21:00;3.70;;;2.42;;
14611;SDS011;7392;52.078;11.650;2022-09-04T12:23:54;3.47;;;2.40;;
14611;SDS011;7392;52.078;11.650;2022-09-04T12:29:46;3.67;;;2.38;;
14611;SDS011;7392;52.078;11.650;2022-09-04T12:32:39;2.65;;;2.22;;
14611;SDS011;7392;52.078;11.650;2022-09-04T12:38:34;2.90;;;2.00;;
14611;SDS011;7392;52.078;11.650;2022-09-04T12:41:16;3.38;;;2.13;;
14611;SDS011;7392;52.078;11.650;2022-09-04T12:43:51;2.10;;;1.90;;
14611;SDS011;7392;52.078;11.650;2022-09-04T12:46:43;2.35;;;2.15;;
14611;SDS011;7392;52.078;11.650;2022-09-04T12:49:31;2.35;;;1.70;;
14611;SDS011;7392;52.078;11.650;2022-09-04T12:52:23;2.20;;;2.00;;
14611;SDS011;7392;52.078;11.650;2022-09-04T12:55:02;2.33;;;2.13;;
14611;SDS011;7392;52.078;11.650;2022-09-04T12:57:42;2.63;;;2.20;;
14611;SDS011;7392;52.078;11.650;2022-09-04T13:00:22;2.13;;;1.88;;
14611;SDS011;7392;52.078;11.650;2022-09-04T13:02:59;2.95;;;2.00;;
14611;SDS011;7392;52.078;11.650;2022-09-04T13:05:42;2.30;;;2.10;;
14611;SDS011;7392;52.078;11.650;2022-09-04T13:08:33;3.70;;;2.08;;
14611;SDS011;7392;52.078;11.650;2022-09-04T13:11:21;2.60;;;2.13;;
14611;SDS011;7392;52.078;11.650;2022-09-04T13:14:11;2.60;;;2.00;;
14611;SDS011;7392;52.078;11.650;2022-09-04T13:16:57;2.25;;;1.95;;
14611;SDS011;7392;52.078;11.650;2022-09-04T13:19:34;2.42;;;2.20;;
14611;SDS011;7392;52.078;11.650;2022-09-04T13:22:14;3.30;;;1.90;;
14611;SDS011;7392;52.078;11.650;2022-09-04T13:24:54;3.95;;;2.45;;
14611;SDS011;7392;52.078;11.650;2022-09-04T13:27:32;2.15;;;1.92;;
14611;SDS011;7392;52.078;11.650;2022-09-04T13:30:22;3.72;;;2.25;;
14611;SDS011;7392;52.078;11.650;2022-09-04T13:32:59;4.13;;;2.58;;
14611;SDS011;7392;52.078;11.650;2022-09-04T13:35:51;2.70;;;2.00;;
14611;SDS011;7392;52.078;11.650;2022-09-04T13:38:32;2.05;;;1.70;;
14611;SDS011;7392;52.078;11.650;2022-09-04T13:41:17;2.42;;;2.20;;
14611;SDS011;7392;52.078;11.650;2022-09-04T13:47:04;3.38;;;2.13;;
14611;SDS011;7392;52.078;11.650;2022-09-04T13:49:40;2.45;;;2.25;;
14611;SDS011;7392;52.078;11.650;2022-09-04T13:52:14;3.25;;;2.20;;
14611;SDS011;7392;52.078;11.650;2022-09-04T13:54:51;3.45;;;2.25;;
14611;SDS011;7392;52.078;11.650;2022-09-04T13:57:26;2.13;;;1.92;;
14611;SDS011;7392;52.078;11.650;2022-09-04T13:59:57;2.53;;;1.83;;
14611;SDS011;7392;52.078;11.650;2022-09-04T14:02:29;2.83;;;2.05;;
14611;SDS011;7392;52.078;11.650;2022-09-04T14:04:59;2.10;;;1.77;;
14611;SDS011;7392;52.078;11.650;2022-09-04T14:07:33;1.88;;;1.63;;
14611;SDS011;7392;52.078;11.650;2022-09-04T14:10:10;2.13;;;1.70;;
14611;SDS011;7392;52.078;11.650;2022-09-04T14:12:51;2.97;;;2.10;;
14611;SDS011;7392;52.078;11.650;2022-09-04T14:15:37;2.28;;;1.95;;
14611;SDS011;7392;52.078;11.650;2022-09-04T14:18:17;2.25;;;1.90;;
14611;SDS011;7392;52.078;11.650;2022-09-04T14:20:55;2.45;;;2.25;;
14611;SDS011;7392;52.078;11.650;2022-09-04T14:23:32;2.30;;;2.05;;
14611;SDS011;7392;52.078;11.650;2022-09-04T14:26:12;2.97;;;1.88;;
14611;SDS011;7392;52.078;11.650;2022-09-04T14:28:52;2.50;;;2.30;;
14611;SDS011;7392;52.078;11.650;2022-09-04T14:31:28;2.17;;;1.80;;
14611;SDS011;7392;52.078;11.650;2022-09-04T14:34:12;1.80;;;1.63;;
14611;SDS011;7392;52.078;11.650;2022-09-04T14:36:51;2.10;;;1.67;;
14611;SDS011;7392;52.078;11.650;2022-09-04T14:39:27;1.65;;;1.55;;
14611;SDS011;7392;52.078;11.650;2022-09-04T14:42:08;1.70;;;1.60;;
14611;SDS011;7392;52.078;11.650;2022-09-04T14:44:59;1.63;;;1.52;;
14611;SDS011;7392;52.078;11.650;2022-09-04T14:47:40;2.05;;;1.67;;
14611;SDS011;7392;52.078;11.650;2022-09-04T14:50:13;1.50;;;1.40;;
14611;SDS011;7392;52.078;11.650;2022-09-04T14:52:45;2.40;;;2.03;;
14611;SDS011;7392;52.078;11.650;2022-09-04T14:55:15;2.00;;;1.80;;
14611;SDS011;7392;52.078;11.650;2022-09-04T14:57:50;2.00;;;1.80;;
14611;SDS011;7392;52.078;11.650;2022-09-04T15:00:22;3.25;;;1.88;;
14611;SDS011;7392;52.078;11.650;2022-09-04T15:02:57;2.75;;;1.90;;
14611;SDS011;7392;52.078;11.650;2022-09-04T15:05:32;2.42;;;1.80;;
14611;SDS011;7392;52.078;11.650;2022-09-04T15:08:06;1.73;;;1.63;;
14611;SDS011;7392;52.078;11.650;2022-09-04T15:10:43;2.60;;;2.10;;
14611;SDS011;7392;52.078;11.650;2022-09-04T15:16:15;1.83;;;1.73;;
14611;SDS011;7392;52.078;11.650;2022-09-04T15:18:50;1.52;;;1.42;;
14611;SDS011;7392;52.078;11.650;2022-09-04T15:21:25;2.05;;;1.83;;
14611;SDS011;7392;52.078;11.650;2022-09-04T15:24:02;1.70;;;1.60;;
14611;SDS011;7392;52.078;11.650;2022-09-04T15:26:42;2.05;;;1.90;;
14611;SDS011;7392;52.078;11.650;2022-09-04T15:29:15;2.90;;;1.95;;
14611;SDS011;7392;52.078;11.650;2022-09-04T15:31:48;2.28;;;2.08;;
14611;SDS011;7392;52.078;11.650;2022-09-04T15:34:26;3.17;;;2.00;;
14611;SDS011;7392;52.078;11.650;2022-09-04T15:36:55;2.05;;;1.85;;
14611;SDS011;7392;52.078;11.650;2022-09-04T15:39:38;1.58;;;1.42;;
14611;SDS011;7392;52.078;11.650;2022-09-04T15:42:29;1.65;;;1.50;;
14611;SDS011;7392;52.078;11.650;2022-09-04T15:45:03;2.00;;;1.80;;
14611;SDS011;7392;52.078;11.650;2022-09-04T15:51:02;1.83;;;1.55;;
14611;SDS011;7392;52.078;11.650;2022-09-04T15:53:42;1.90;;;1.70;;
14611;SDS011;7392;52.078;11.650;2022-09-04T15:56:29;1.52;;;1.42;;
14611;SDS011;7392;52.078;11.650;2022-09-04T15:59:04;2.63;;;1.70;;
14611;SDS011;7392;52.078;11.650;2022-09-04T16:01:43;2.00;;;1.63;;
14611;SDS011;7392;52.078;11.650;2022-09-04T16:04:20;2.95;;;1.70;;
14611;SDS011;7392;52.078;11.650;2022-09-04T16:06:55;3.65;;;1.65;;
14611;SDS011;7392;52.078;11.650;2022-09-04T16:09:29;2.40;;;1.65;;
14611;SDS011;7392;52.078;11.650;2022-09-04T16:12:03;2.13;;;1.92;;
14611;SDS011;7392;52.078;11.650;2022-09-04T16:14:42;3.15;;;1.70;;
14611;SDS011;7392;52.078;11.650;2022-09-04T16:17:12;2.15;;;1.52;;
14611;SDS011;7392;52.078;11.650;2022-09-04T16:19:47;1.63;;;1.52;;
14611;SDS011;7392;52.078;11.650;2022-09-04T16:22:27;1.83;;;1.70;;
14611;SDS011;7392;52.078;11.650;2022-09-04T16:25:05;2.10;;;1.80;;
14611;SDS011;7392;52.078;11.650;2022-09-04T16:27:39;1.73;;;1.63;;
14611;SDS011;7392;52.078;11.650;2022-09-04T16:30:23;1.75;;;1.63;;
14611;SDS011;7392;52.078;11.650;2022-09-04T16:33:00;1.73;;;1.63;;
14611;SDS011;7392;52.078;11.650;2022-09-04T16:35:45;1.65;;;1.50;;
14611;SDS011;7392;52.078;11.650;2022-09-04T16:38:17;1.40;;;1.30;;
14611;SDS011;7392;52.078;11.650;2022-09-04T16:40:50;1.55;;;1.30;;
14611;SDS011;7392;52.078;11.650;2022-09-04T16:43:24;1.67;;;1.27;;
14611;SDS011;7392;52.078;11.650;2022-09-04T16:46:01;1.48;;;1.38;;
14611;SDS011;7392;52.078;11.650;2022-09-04T16:48:40;1.23;;;1.13;;
14611;SDS011;7392;52.078;11.650;2022-09-04T16:51:14;1.70;;;1.50;;
14611;SDS011;7392;52.078;11.650;2022-09-04T16:54:07;2.88;;;1.48;;
14611;SDS011;7392;52.078;11.650;2022-09-04T16:56:43;1.55;;;1.45;;
14611;SDS011;7392;52.078;11.650;2022-09-04T16:59:21;1.92;;;1.50;;
14611;SDS011;7392;52.078;11.650;2022-09-04T17:01:56;1.42;;;1.25;;
14611;SDS011;7392;52.078;11.650;2022-09-04T17:04:28;1.50;;;1.40;;
14611;SDS011;7392;52.078;11.650;2022-09-04T17:07:11;1.38;;;1.13;;
14611;SDS011;7392;52.078;11.650;2022-09-04T17:09:53;1.20;;;1.10;;
14611;SDS011;7392;52.078;11.650;2022-09-04T17:12:30;1.23;;;1.13;;
14611;SDS011;7392;52.078;11.650;2022-09-04T17:15:09;2.00;;;1.20;;
14611;SDS011;7392;52.078;11.650;2022-09-04T17:17:43;1.20;;;1.10;;
14611;SDS011;7392;52.078;11.650;2022-09-04T17:20:19;1.10;;;1.00;;
14611;SDS011;7392;52.078;11.650;2022-09-04T17:23:11;1.20;;;1.10;;
14611;SDS011;7392;52.078;11.650;2022-09-04T17:26:07;1.20;;;1.10;;
14611;SDS011;7392;52.078;11.650;2022-09-04T17:28:58;1.25;;;1.13;;
14611;SDS011;7392;52.078;11.650;2022-09-04T17:31:52;1.30;;;1.20;;
14611;SDS011;7392;52.078;11.650;2022-09-04T17:34:40;0.90;;;0.90;;
14611;SDS011;7392;52.078;11.650;2022-09-04T17:37:36;1.48;;;1.20;;
14611;SDS011;7392;52.078;11.650;2022-09-04T17:40:32;0.80;;;0.80;;
14611;SDS011;7392;52.078;11.650;2022-09-04T17:43:34;1.10;;;1.00;;
14611;SDS011;7392;52.078;11.650;2022-09-04T17:46:12;0.90;;;0.88;;
14611;SDS011;7392;52.078;11.650;2022-09-04T17:48:51;1.20;;;1.10;;
14611;SDS011;7392;52.078;11.650;2022-09-04T17:51:20;0.82;;;0.80;;
14611;SDS011;7392;52.078;11.650;2022-09-04T17:53:52;0.93;;;0.80;;
14611;SDS011;7392;52.078;11.650;2022-09-04T17:56:24;1.02;;;0.95;;